Time;durP1;ratioP1;P1;durP2;ratioP2;P2;SDS_P1;SDS_P2;PMS_P1;PMS_P2;Temp;Humidity;BMP_temperature;BMP_pressure;BME280_temperature;BME280_humidity;BME280_pressure;Samples;Min_cycle;Max_cycle;Signal;HPM_P1;HPM_P2
2021/12/13 00:00:54;;;;;;;21.90;18.47;;;;;;;;;;5036431;28;20574;-73
2021/12/13 00:03:41;;;;;;;19.33;16.83;;;;;;;;;;5032364;28;20446;-75
2021/12/13 00:06:18;;;;;;;24.10;18.43;;;;;;;;;;5033277;28;20434;-74
2021/12/13 00:08:47;;;;;;;21.37;17.27;;;;;;;;;;5031983;28;20430;-73
2021/12/13 00:11:18;;;;;;;24.50;16.67;;;;;;;;;;5035231;28;20425;-73
2021/12/13 00:13:48;;;;;;;17.90;14.73;;;;;;;;;;5036292;28;20447;-73
2021/12/13 00:16:23;;;;;;;19.30;15.70;;;;;;;;;;5029756;28;20422;-75
2021/12/13 00:18:56;;;;;;;19.93;17.20;;;;;;;;;;5034183;28;20433;-73
2021/12/13 00:21:27;;;;;;;16.77;14.90;;;;;;;;;;5033451;28;20454;-74
2021/12/13 00:23:58;;;;;;;22.33;15.67;;;;;;;;;;5033270;28;20916;-72
2021/12/13 00:26:33;;;;;;;21.90;15.60;;;;;;;;;;5034873;28;20445;-74
2021/12/13 00:29:07;;;;;;;20.60;16.57;;;;;;;;;;5038026;28;20426;-73
2021/12/13 00:31:47;;;;;;;18.00;13.97;;;;;;;;;;5031367;28;20438;-75
2021/12/13 00:34:21;;;;;;;20.33;15.13;;;;;;;;;;5030936;28;20572;-74
2021/12/13 00:37:12;;;;;;;22.20;15.20;;;;;;;;;;5034795;28;20427;-73
2021/12/13 00:40:01;;;;;;;18.73;14.10;;;;;;;;;;5027098;28;20442;-73
2021/12/13 00:42:31;;;;;;;17.03;13.10;;;;;;;;;;5030233;28;20508;-74
2021/12/13 00:44:58;;;;;;;18.77;15.00;;;;;;;;;;5030316;28;20485;-73
2021/12/13 00:47:26;;;;;;;20.63;14.50;;;;;;;;;;5031942;28;21013;-75
2021/12/13 00:50:04;;;;;;;15.87;13.60;;;;;;;;;;5029609;28;20434;-73
2021/12/13 00:52:38;;;;;;;17.90;15.00;;;;;;;;;;5031823;28;20430;-72
2021/12/13 00:55:11;;;;;;;20.73;16.20;;;;;;;;;;5028125;28;20457;-73
2021/12/13 00:57:42;;;;;;;17.23;13.40;;;;;;;;;;5031127;28;20441;-73
2021/12/13 01:00:11;;;;;;;16.37;13.63;;;;;;;;;;5035412;28;20417;-74
2021/12/13 01:02:42;;;;;;;18.10;14.50;;;;;;;;;;5028950;28;20434;-74
2021/12/13 01:05:07;;;;;;;18.43;14.50;;;;;;;;;;5030688;28;20459;-74
2021/12/13 01:07:33;;;;;;;15.10;13.40;;;;;;;;;;5036476;28;20435;-74
2021/12/13 01:10:07;;;;;;;14.53;12.37;;;;;;;;;;5034992;28;20242;-75
2021/12/13 01:12:33;;;;;;;15.57;13.87;;;;;;;;;;5034112;28;20552;-74
2021/12/13 01:15:11;;;;;;;14.80;13.27;;;;;;;;;;5034807;28;20470;-77
2021/12/13 01:17:56;;;;;;;15.90;13.17;;;;;;;;;;5035940;28;20171;-73
2021/12/13 01:20:56;;;;;;;11.97;10.70;;;;;;;;;;5032768;28;21068;-74
2021/12/13 01:23:47;;;;;;;14.57;12.50;;;;;;;;;;5033354;28;20541;-75
2021/12/13 01:28:48;;;;;;;12.60;11.30;;;;;;;;;;5036111;28;20938;-74
2021/12/13 01:31:29;;;;;;;14.07;11.80;;;;;;;;;;5033361;28;20448;-73
2021/12/13 01:33:58;;;;;;;14.00;12.43;;;;;;;;;;5030356;28;20473;-75
2021/12/13 01:36:32;;;;;;;13.37;11.93;;;;;;;;;;5035826;28;20446;-75
2021/12/13 01:39:03;;;;;;;12.10;10.80;;;;;;;;;;5035418;28;20415;-72
2021/12/13 01:41:34;;;;;;;12.37;11.13;;;;;;;;;;5034672;28;20457;-73
2021/12/13 01:44:22;;;;;;;13.33;11.87;;;;;;;;;;5036273;28;20455;-72
2021/12/13 01:46:52;;;;;;;13.87;11.90;;;;;;;;;;5036255;28;20922;-75
2021/12/13 01:49:36;;;;;;;13.10;11.13;;;;;;;;;;5041147;28;20418;-74
2021/12/13 01:52:15;;;;;;;13.40;12.00;;;;;;;;;;5037125;28;20434;-73
2021/12/13 01:54:40;;;;;;;12.90;11.60;;;;;;;;;;5038822;28;20531;-74
2021/12/13 01:59:53;;;;;;;13.07;11.87;;;;;;;;;;5032326;28;20169;-73
2021/12/13 02:02:19;;;;;;;13.47;12.10;;;;;;;;;;5031358;28;20512;-75
2021/12/13 02:04:45;;;;;;;12.27;11.00;;;;;;;;;;5031194;28;20468;-75
2021/12/13 02:07:11;;;;;;;12.73;11.03;;;;;;;;;;5034130;28;20187;-74
2021/12/13 02:09:41;;;;;;;13.27;11.97;;;;;;;;;;5036720;28;20442;-73
2021/12/13 02:12:14;;;;;;;13.80;11.83;;;;;;;;;;5030503;28;20438;-72
2021/12/13 02:14:47;;;;;;;15.30;13.10;;;;;;;;;;5030491;28;20470;-73
2021/12/13 02:17:15;;;;;;;14.63;12.80;;;;;;;;;;5034463;28;20429;-74
2021/12/13 02:19:43;;;;;;;16.80;12.73;;;;;;;;;;5031202;28;20536;-74
2021/12/13 02:22:20;;;;;;;15.43;13.47;;;;;;;;;;5036375;28;20461;-72
2021/12/13 02:24:48;;;;;;;19.47;15.00;;;;;;;;;;5034645;28;20453;-74
2021/12/13 02:27:13;;;;;;;17.37;14.97;;;;;;;;;;5028742;28;20514;-72
2021/12/13 02:29:39;;;;;;;16.57;13.53;;;;;;;;;;5029733;28;20526;-73
2021/12/13 02:32:07;;;;;;;17.63;14.27;;;;;;;;;;5029378;28;20282;-72
2021/12/13 02:34:33;;;;;;;17.07;15.27;;;;;;;;;;5031467;28;20234;-75
2021/12/13 02:36:59;;;;;;;15.50;13.47;;;;;;;;;;5034061;28;20437;-73
2021/12/13 02:39:27;;;;;;;19.20;14.60;;;;;;;;;;5029089;28;20422;-74
2021/12/13 02:41:52;;;;;;;18.27;15.47;;;;;;;;;;5032201;28;20168;-73
2021/12/13 02:44:22;;;;;;;15.30;13.70;;;;;;;;;;5033143;28;20477;-74
2021/12/13 02:46:49;;;;;;;20.00;15.73;;;;;;;;;;5034853;28;20516;-73
2021/12/13 02:49:15;;;;;;;17.50;13.83;;;;;;;;;;5030827;28;20433;-74
2021/12/13 02:51:47;;;;;;;16.17;13.97;;;;;;;;;;5033240;28;20434;-74
2021/12/13 02:54:18;;;;;;;13.47;12.07;;;;;;;;;;5027632;28;20584;-72
2021/12/13 02:57:06;;;;;;;13.63;12.20;;;;;;;;;;5030966;28;20410;-75
2021/12/13 02:59:40;;;;;;;14.73;12.70;;;;;;;;;;5031890;28;20531;-73
2021/12/13 03:02:05;;;;;;;15.10;12.23;;;;;;;;;;5028132;28;20409;-73
2021/12/13 03:04:31;;;;;;;14.07;11.43;;;;;;;;;;5034378;28;21194;-74
2021/12/13 03:06:59;;;;;;;12.70;11.30;;;;;;;;;;5033357;28;20187;-76
2021/12/13 03:09:25;;;;;;;12.63;11.00;;;;;;;;;;5048710;28;20235;-76
2021/12/13 03:11:52;;;;;;;12.87;10.57;;;;;;;;;;5029016;28;20516;-73
2021/12/13 03:14:20;;;;;;;13.37;11.53;;;;;;;;;;5033043;28;20470;-75
2021/12/13 03:16:58;;;;;;;15.93;11.87;;;;;;;;;;5036696;28;20435;-75
2021/12/13 03:20:17;;;;;;;13.67;11.30;;;;;;;;;;5029942;28;20515;-74
2021/12/13 03:22:41;;;;;;;13.47;11.80;;;;;;;;;;5028075;28;23774;-73
2021/12/13 03:25:37;;;;;;;16.93;11.90;;;;;;;;;;5028859;28;20549;-74
2021/12/13 03:28:04;;;;;;;12.93;11.53;;;;;;;;;;5036059;28;20922;-74
2021/12/13 03:30:35;;;;;;;14.97;12.47;;;;;;;;;;5029319;28;20461;-73
2021/12/13 03:33:13;;;;;;;13.17;11.80;;;;;;;;;;5035372;28;20528;-74
2021/12/13 03:35:50;;;;;;;14.73;13.20;;;;;;;;;;5033808;28;20459;-73
2021/12/13 03:38:18;;;;;;;13.20;11.77;;;;;;;;;;5034301;28;21219;-73
2021/12/13 03:40:43;;;;;;;14.83;12.80;;;;;;;;;;5032099;28;20456;-74
2021/12/13 03:43:16;;;;;;;14.70;11.60;;;;;;;;;;5030682;28;20962;-73
2021/12/13 03:45:49;;;;;;;15.83;12.90;;;;;;;;;;5035939;28;20184;-74
2021/12/13 03:48:16;;;;;;;15.60;12.60;;;;;;;;;;5030959;28;20427;-76
2021/12/13 03:50:44;;;;;;;16.03;12.60;;;;;;;;;;5035873;28;20515;-72
2021/12/13 03:53:11;;;;;;;13.43;12.03;;;;;;;;;;5034725;28;20524;-75
2021/12/13 03:55:39;;;;;;;15.30;13.00;;;;;;;;;;5035612;28;20472;-72
2021/12/13 03:58:09;;;;;;;13.90;12.10;;;;;;;;;;5034300;28;20456;-74
2021/12/13 04:00:39;;;;;;;17.70;13.33;;;;;;;;;;5038350;28;20513;-74
2021/12/13 04:03:07;;;;;;;19.37;14.23;;;;;;;;;;5033385;28;20458;-73
2021/12/13 04:05:32;;;;;;;18.77;13.67;;;;;;;;;;5033729;28;20451;-74
2021/12/13 04:08:00;;;;;;;19.10;14.47;;;;;;;;;;5033960;28;20787;-73
2021/12/13 04:10:30;;;;;;;15.87;13.63;;;;;;;;;;5031832;28;20893;-74
2021/12/13 04:13:00;;;;;;;18.83;15.70;;;;;;;;;;5030492;28;20962;-74
2021/12/13 04:15:34;;;;;;;18.23;14.10;;;;;;;;;;5034533;28;20548;-73
2021/12/13 04:18:15;;;;;;;18.10;14.47;;;;;;;;;;5033502;28;20432;-73
2021/12/13 04:20:43;;;;;;;21.63;14.37;;;;;;;;;;5031629;28;20418;-75
2021/12/13 04:23:08;;;;;;;16.83;14.90;;;;;;;;;;5030938;28;20441;-73
2021/12/13 04:25:36;;;;;;;24.50;14.67;;;;;;;;;;5030142;28;20537;-73
2021/12/13 04:28:04;;;;;;;18.60;14.60;;;;;;;;;;5029339;28;20184;-73
2021/12/13 04:30:49;;;;;;;17.33;14.97;;;;;;;;;;5032606;28;20497;-73
2021/12/13 04:33:26;;;;;;;16.67;14.20;;;;;;;;;;5030688;28;20442;-75
2021/12/13 04:35:53;;;;;;;24.23;16.47;;;;;;;;;;5030362;28;20465;-76
2021/12/13 04:38:25;;;;;;;22.30;15.37;;;;;;;;;;5029470;28;20434;-74
2021/12/13 04:40:52;;;;;;;19.07;14.30;;;;;;;;;;5030979;28;20466;-74
2021/12/13 04:43:21;;;;;;;20.77;15.30;;;;;;;;;;5029581;28;20917;-73
2021/12/13 04:45:56;;;;;;;22.40;15.00;;;;;;;;;;5030069;28;20438;-73
2021/12/13 04:48:24;;;;;;;23.33;15.30;;;;;;;;;;5031125;28;20441;-73
2021/12/13 04:51:05;;;;;;;21.50;14.63;;;;;;;;;;5033056;28;20462;-74
2021/12/13 04:53:32;;;;;;;23.60;14.30;;;;;;;;;;5029630;28;20501;-75
2021/12/13 04:56:20;;;;;;;21.83;14.67;;;;;;;;;;5030937;28;20978;-74
2021/12/13 04:58:49;;;;;;;18.37;14.03;;;;;;;;;;5034191;28;20426;-74
2021/12/13 05:01:15;;;;;;;18.93;13.43;;;;;;;;;;5033639;28;20482;-73
2021/12/13 05:03:50;;;;;;;24.37;14.30;;;;;;;;;;5033149;28;20549;-74
2021/12/13 05:06:18;;;;;;;19.17;14.20;;;;;;;;;;5031841;28;20461;-74
2021/12/13 05:08:44;;;;;;;18.10;13.13;;;;;;;;;;5035753;28;20469;-73
2021/12/13 05:11:14;;;;;;;16.87;13.50;;;;;;;;;;5031225;28;20441;-73
2021/12/13 05:13:46;;;;;;;20.30;12.50;;;;;;;;;;5032114;28;21043;-73
2021/12/13 05:16:12;;;;;;;20.10;12.90;;;;;;;;;;5035293;28;20441;-74
2021/12/13 05:18:43;;;;;;;16.97;11.67;;;;;;;;;;5030031;28;20425;-73
2021/12/13 05:21:10;;;;;;;18.47;9.60;;;;;;;;;;5033694;28;20429;-74
2021/12/13 05:23:51;;;;;;;18.40;10.40;;;;;;;;;;5035356;28;20466;-75
2021/12/13 05:26:28;;;;;;;21.47;9.50;;;;;;;;;;5030371;28;20437;-73
2021/12/13 05:28:53;;;;;;;12.80;8.67;;;;;;;;;;5034295;28;20926;-74
2021/12/13 05:31:23;;;;;;;15.10;9.17;;;;;;;;;;5028896;28;20444;-73
2021/12/13 05:33:54;;;;;;;14.17;8.57;;;;;;;;;;5031481;28;20688;-74
2021/12/13 05:36:24;;;;;;;16.40;8.97;;;;;;;;;;5033601;28;20801;-74
2021/12/13 05:39:15;;;;;;;13.23;8.17;;;;;;;;;;5044762;28;20819;-72
2021/12/13 05:41:48;;;;;;;13.60;7.47;;;;;;;;;;5048414;28;20465;-76
2021/12/13 05:44:22;;;;;;;10.23;6.80;;;;;;;;;;5036031;28;20478;-73
2021/12/13 05:47:02;;;;;;;13.50;7.40;;;;;;;;;;5035981;28;20423;-73
2021/12/13 05:49:38;;;;;;;14.30;7.00;;;;;;;;;;5038388;28;20919;-74
2021/12/13 05:52:21;;;;;;;10.73;6.87;;;;;;;;;;5033692;28;20434;-75
2021/12/13 05:54:49;;;;;;;17.63;7.07;;;;;;;;;;5029345;28;20565;-72
2021/12/13 05:57:24;;;;;;;8.83;5.70;;;;;;;;;;5033883;28;20426;-72
2021/12/13 06:00:02;;;;;;;13.70;6.23;;;;;;;;;;5036120;28;20511;-73
2021/12/13 06:02:46;;;;;;;9.40;5.70;;;;;;;;;;5034707;28;20422;-72
2021/12/13 06:05:17;;;;;;;11.53;5.83;;;;;;;;;;5032329;28;20641;-72
2021/12/13 06:07:51;;;;;;;8.80;6.00;;;;;;;;;;5027531;28;21204;-74
2021/12/13 06:10:33;;;;;;;10.20;5.10;;;;;;;;;;5035282;28;20461;-74
2021/12/13 06:13:08;;;;;;;8.97;5.40;;;;;;;;;;5019663;28;20443;-75
2021/12/13 06:15:35;;;;;;;7.70;4.40;;;;;;;;;;5033368;28;20458;-74
2021/12/13 06:18:01;;;;;;;10.03;5.10;;;;;;;;;;5030154;28;20431;-73
2021/12/13 06:20:54;;;;;;;10.43;4.90;;;;;;;;;;5031536;28;20519;-73
2021/12/13 06:23:28;;;;;;;6.57;4.80;;;;;;;;;;5032617;28;20204;-73
2021/12/13 06:26:00;;;;;;;6.93;4.53;;;;;;;;;;5032854;28;20709;-74
2021/12/13 06:28:28;;;;;;;13.77;4.60;;;;;;;;;;5028642;28;20430;-74
2021/12/13 06:30:55;;;;;;;7.63;3.90;;;;;;;;;;5030657;28;20436;-73
2021/12/13 06:33:21;;;;;;;6.10;4.37;;;;;;;;;;5025644;28;20960;-74
2021/12/13 06:35:51;;;;;;;8.27;4.50;;;;;;;;;;5029004;28;20457;-73
2021/12/13 06:38:25;;;;;;;8.40;4.40;;;;;;;;;;5022006;28;20233;-73
2021/12/13 06:40:55;;;;;;;8.50;5.13;;;;;;;;;;5035488;28;20444;-75
2021/12/13 06:43:47;;;;;;;11.53;5.97;;;;;;;;;;5034840;28;20454;-76
2021/12/13 06:46:25;;;;;;;8.10;5.63;;;;;;;;;;5017032;28;22466;-74
2021/12/13 06:48:54;;;;;;;14.27;6.60;;;;;;;;;;5031060;28;20427;-73
2021/12/13 06:51:20;;;;;;;15.70;7.13;;;;;;;;;;5016420;28;20431;-73
2021/12/13 06:54:20;;;;;;;11.07;7.43;;;;;;;;;;5023087;28;20480;-75
2021/12/13 06:56:51;;;;;;;6.53;5.93;;;;;;;;;;5016511;28;20457;-75
2021/12/13 06:59:19;;;;;;;10.97;6.57;;;;;;;;;;5026708;28;20430;-74
2021/12/13 07:01:56;;;;;;;9.37;7.33;;;;;;;;;;5027051;28;20438;-73
2021/12/13 07:04:21;;;;;;;10.10;6.97;;;;;;;;;;5027109;28;20533;-72
2021/12/13 07:06:50;;;;;;;9.60;8.20;;;;;;;;;;5032503;28;20812;-73
2021/12/13 07:10:03;;;;;;;13.40;7.30;;;;;;;;;;5027243;28;20239;-72
2021/12/13 07:12:17;;;;;;;13.63;7.67;;;;;;;;;;5018423;28;20444;-74
2021/12/13 07:14:48;;;;;;;9.57;7.50;;;;;;;;;;5030599;28;20492;-73
2021/12/13 07:17:27;;;;;;;11.23;8.20;;;;;;;;;;5029441;28;20466;-73
2021/12/13 07:19:56;;;;;;;12.17;8.10;;;;;;;;;;5030174;28;20422;-74
2021/12/13 07:22:23;;;;;;;12.63;7.70;;;;;;;;;;5030090;28;20982;-73
2021/12/13 07:24:51;;;;;;;14.43;7.90;;;;;;;;;;5031081;28;20910;-72
2021/12/13 07:27:46;;;;;;;11.10;7.20;;;;;;;;;;5034811;28;20433;-72
2021/12/13 07:30:19;;;;;;;12.60;8.50;;;;;;;;;;5032477;28;20444;-73
2021/12/13 07:32:47;;;;;;;9.43;7.67;;;;;;;;;;5026087;28;20442;-72
2021/12/13 07:35:18;;;;;;;9.33;7.17;;;;;;;;;;5029573;28;20470;-73
2021/12/13 07:37:52;;;;;;;13.13;8.23;;;;;;;;;;5032677;28;21456;-74
2021/12/13 07:40:31;;;;;;;10.50;7.30;;;;;;;;;;5037472;28;20868;-73
2021/12/13 07:43:05;;;;;;;13.30;7.57;;;;;;;;;;5034464;28;20427;-73
2021/12/13 07:45:54;;;;;;;11.30;8.30;;;;;;;;;;5049284;28;20445;-73
2021/12/13 07:48:32;;;;;;;10.77;7.97;;;;;;;;;;5032919;28;20462;-73
2021/12/13 07:51:06;;;;;;;15.37;9.30;;;;;;;;;;5033976;28;20418;-74
2021/12/13 07:53:46;;;;;;;9.70;8.30;;;;;;;;;;5022359;28;20542;-73
2021/12/13 07:56:18;;;;;;;12.67;8.50;;;;;;;;;;5036879;28;21076;-72
2021/12/13 07:58:48;;;;;;;15.73;9.10;;;;;;;;;;5031659;28;20430;-73
2021/12/13 08:01:21;;;;;;;14.70;9.17;;;;;;;;;;5032269;28;20442;-74
2021/12/13 08:03:54;;;;;;;10.63;9.13;;;;;;;;;;5033131;28;20542;-73
2021/12/13 08:06:21;;;;;;;12.70;9.80;;;;;;;;;;5031476;28;20813;-73
2021/12/13 08:08:48;;;;;;;12.93;8.67;;;;;;;;;;5032410;28;20448;-71
2021/12/13 08:11:14;;;;;;;10.70;8.40;;;;;;;;;;5030864;28;20981;-72
2021/12/13 08:13:39;;;;;;;13.80;10.23;;;;;;;;;;5055024;28;20465;-75
2021/12/13 08:16:10;;;;;;;16.93;9.80;;;;;;;;;;5029341;28;20199;-75
2021/12/13 08:18:37;;;;;;;11.03;9.60;;;;;;;;;;5032191;28;20183;-73
2021/12/13 08:21:04;;;;;;;15.77;11.30;;;;;;;;;;5037617;28;20426;-73
2021/12/13 08:23:36;;;;;;;13.00;10.07;;;;;;;;;;5026058;28;20473;-72
2021/12/13 08:26:06;;;;;;;12.43;9.80;;;;;;;;;;5043206;28;20438;-73
2021/12/13 08:28:40;;;;;;;10.67;9.40;;;;;;;;;;5030075;28;21029;-73
2021/12/13 08:31:07;;;;;;;18.73;11.50;;;;;;;;;;5035973;28;20439;-72
2021/12/13 08:33:36;;;;;;;15.53;10.37;;;;;;;;;;5032017;28;20454;-74
2021/12/13 08:36:10;;;;;;;20.77;9.97;;;;;;;;;;5032358;28;20466;-73
2021/12/13 08:38:38;;;;;;;12.03;9.67;;;;;;;;;;5035764;28;20893;-74
2021/12/13 08:41:17;;;;;;;16.03;9.67;;;;;;;;;;5045788;28;20430;-74
2021/12/13 08:43:55;;;;;;;;;;;;;;;;;;;;;
2021/12/13 08:46:43;;;;;;;15.43;10.33;;;;;;;;;;5032908;28;20445;-72
2021/12/13 08:49:11;;;;;;;13.40;10.50;;;;;;;;;;5033630;28;20419;-73
2021/12/13 08:51:49;;;;;;;12.67;11.10;;;;;;;;;;5027386;28;20430;-72
2021/12/13 08:54:15;;;;;;;11.63;10.37;;;;;;;;;;5036067;28;20443;-74
2021/12/13 08:56:48;;;;;;;14.70;12.03;;;;;;;;;;5034002;28;20520;-73
2021/12/13 08:59:23;;;;;;;20.93;11.83;;;;;;;;;;5025533;28;20436;-73
2021/12/13 09:01:54;;;;;;;13.37;12.00;;;;;;;;;;5034567;28;20810;-74
2021/12/13 09:04:30;;;;;;;21.60;12.77;;;;;;;;;;5038868;28;20481;-74
2021/12/13 09:07:02;;;;;;;15.47;13.10;;;;;;;;;;5031872;28;20442;-73
2021/12/13 09:09:28;;;;;;;16.37;12.63;;;;;;;;;;5033255;28;20828;-75
2021/12/13 09:12:04;;;;;;;16.60;14.20;;;;;;;;;;5034707;28;20433;-75
2021/12/13 09:14:36;;;;;;;18.53;13.97;;;;;;;;;;5026832;28;20207;-75
2021/12/13 09:17:09;;;;;;;16.33;13.87;;;;;;;;;;5031855;28;20437;-72
2021/12/13 09:19:44;;;;;;;19.57;15.00;;;;;;;;;;5029194;28;20586;-74
2021/12/13 09:22:16;;;;;;;18.00;14.10;;;;;;;;;;5034117;28;20434;-73
2021/12/13 09:24:44;;;;;;;20.90;15.83;;;;;;;;;;5030120;28;20501;-74
2021/12/13 09:27:18;;;;;;;17.83;14.77;;;;;;;;;;5031929;28;21011;-75
2021/12/13 09:29:53;;;;;;;18.27;15.30;;;;;;;;;;5028463;28;21063;-73
2021/12/13 09:32:19;;;;;;;18.23;15.93;;;;;;;;;;5030437;28;20469;-74
2021/12/13 09:34:45;;;;;;;19.43;16.77;;;;;;;;;;5031806;28;21066;-74
2021/12/13 09:37:34;;;;;;;22.60;16.40;;;;;;;;;;5035238;28;20517;-73
2021/12/13 09:40:09;;;;;;;18.77;16.67;;;;;;;;;;5032602;28;20172;-74
2021/12/13 09:42:46;;;;;;;21.27;17.27;;;;;;;;;;5041604;28;20768;-72
2021/12/13 09:45:13;;;;;;;24.40;17.33;;;;;;;;;;5028671;28;20454;-74
2021/12/13 09:47:40;;;;;;;20.73;17.63;;;;;;;;;;5031158;28;20789;-73
2021/12/13 09:50:14;;;;;;;22.77;17.77;;;;;;;;;;5028847;28;20496;-75
2021/12/13 09:52:47;;;;;;;23.27;19.47;;;;;;;;;;5032326;28;20846;-73
2021/12/13 09:55:15;;;;;;;21.83;19.47;;;;;;;;;;5034275;28;20480;-72
2021/12/13 09:57:40;;;;;;;26.27;19.80;;;;;;;;;;5030693;28;20426;-71
2021/12/13 10:00:09;;;;;;;22.23;19.83;;;;;;;;;;5028716;28;20441;-72
2021/12/13 10:02:39;;;;;;;24.53;19.40;;;;;;;;;;5031122;28;20623;-76
2021/12/13 10:05:06;;;;;;;25.97;19.73;;;;;;;;;;5028603;28;20455;-72
2021/12/13 10:07:35;;;;;;;29.40;21.83;;;;;;;;;;5027557;28;20446;-77
2021/12/13 10:10:05;;;;;;;26.07;20.63;;;;;;;;;;5028730;28;20453;-73
2021/12/13 10:12:39;;;;;;;23.47;20.23;;;;;;;;;;5027967;28;20426;-73
2021/12/13 10:15:10;;;;;;;25.57;21.13;;;;;;;;;;5033128;28;20509;-72
2021/12/13 10:17:37;;;;;;;24.43;20.10;;;;;;;;;;5031511;28;20967;-72
2021/12/13 10:20:09;;;;;;;29.87;21.43;;;;;;;;;;5034150;28;20525;-73
2021/12/13 10:22:35;;;;;;;26.77;20.10;;;;;;;;;;5030991;28;20488;-73
2021/12/13 10:25:08;;;;;;;23.17;19.77;;;;;;;;;;5026747;28;20473;-72
2021/12/13 10:27:36;;;;;;;26.90;22.30;;;;;;;;;;5028589;28;20461;-75
2021/12/13 10:30:04;;;;;;;23.47;19.80;;;;;;;;;;5027919;28;20446;-73
2021/12/13 10:32:35;;;;;;;24.70;21.60;;;;;;;;;;5031606;28;20434;-73
2021/12/13 10:35:05;;;;;;;25.27;20.37;;;;;;;;;;5032230;28;20885;-72
2021/12/13 10:37:40;;;;;;;23.27;19.80;;;;;;;;;;5024410;28;20425;-72
2021/12/13 10:40:18;;;;;;;24.77;20.80;;;;;;;;;;5029683;28;20441;-74
2021/12/13 10:42:58;;;;;;;23.97;19.23;;;;;;;;;;5029122;28;20422;-78
2021/12/13 10:45:25;;;;;;;26.83;18.97;;;;;;;;;;5026387;28;20472;-74
2021/12/13 10:47:52;;;;;;;23.63;18.23;;;;;;;;;;5024620;28;20520;-74
2021/12/13 10:50:21;;;;;;;21.80;18.20;;;;;;;;;;5019836;28;20426;-74
2021/12/13 10:52:48;;;;;;;22.90;18.73;;;;;;;;;;5024543;28;20445;-74
2021/12/13 10:55:23;;;;;;;21.30;18.13;;;;;;;;;;5026680;28;20481;-74
2021/12/13 10:57:49;;;;;;;21.13;17.33;;;;;;;;;;5030473;28;20432;-73
2021/12/13 11:00:21;;;;;;;26.57;18.80;;;;;;;;;;5024159;28;20446;-73
2021/12/13 11:02:50;;;;;;;21.50;17.73;;;;;;;;;;5024032;28;20429;-74
2021/12/13 11:05:17;;;;;;;21.53;17.97;;;;;;;;;;5029526;28;20474;-72
2021/12/13 11:07:46;;;;;;;27.03;17.70;;;;;;;;;;5029295;28;21069;-75
2021/12/13 11:10:16;;;;;;;20.40;17.00;;;;;;;;;;5029663;28;20426;-74
2021/12/13 11:12:44;;;;;;;20.57;17.47;;;;;;;;;;5023107;28;20430;-74
2021/12/13 11:15:13;;;;;;;16.67;14.97;;;;;;;;;;5031333;28;20471;-74
2021/12/13 11:17:39;;;;;;;21.53;16.30;;;;;;;;;;5029227;28;20426;-75
2021/12/13 11:20:08;;;;;;;19.40;16.20;;;;;;;;;;5029535;28;20873;-73
2021/12/13 11:22:34;;;;;;;20.37;16.43;;;;;;;;;;5026755;28;20436;-74
2021/12/13 11:25:09;;;;;;;18.17;16.27;;;;;;;;;;5028730;28;20458;-75
2021/12/13 11:27:35;;;;;;;17.77;15.70;;;;;;;;;;5026297;28;20284;-76
2021/12/13 11:30:05;;;;;;;20.43;15.60;;;;;;;;;;5030154;28;20541;-76
2021/12/13 11:32:39;;;;;;;17.83;15.17;;;;;;;;;;5031603;28;21041;-74
2021/12/13 11:35:11;;;;;;;20.50;15.97;;;;;;;;;;5033967;28;20472;-74
2021/12/13 11:37:45;;;;;;;20.07;16.40;;;;;;;;;;5030686;28;20523;-74
2021/12/13 11:40:29;;;;;;;21.30;16.30;;;;;;;;;;5024835;28;20524;-73
2021/12/13 11:43:13;;;;;;;18.50;15.90;;;;;;;;;;5030306;28;20446;-73
2021/12/13 11:46:01;;;;;;;17.03;15.33;;;;;;;;;;5024221;28;20641;-73
2021/12/13 11:48:41;;;;;;;16.23;14.60;;;;;;;;;;5023446;28;20926;-73
2021/12/13 11:51:26;;;;;;;16.40;14.70;;;;;;;;;;5026007;28;20792;-75
2021/12/13 11:54:04;;;;;;;21.73;14.53;;;;;;;;;;5029404;28;20963;-74
2021/12/13 11:56:48;;;;;;;20.17;15.20;;;;;;;;;;5029838;28;20446;-73
2021/12/13 11:59:32;;;;;;;16.03;14.20;;;;;;;;;;5029729;28;21015;-75
2021/12/13 12:02:07;;;;;;;18.03;15.67;;;;;;;;;;5019430;28;22259;-74
2021/12/13 12:04:38;;;;;;;16.03;14.33;;;;;;;;;;5027612;28;21812;-74
2021/12/13 12:07:12;;;;;;;15.67;13.70;;;;;;;;;;5026309;28;20430;-75
2021/12/13 12:09:57;;;;;;;23.30;15.30;;;;;;;;;;5028737;28;20437;-76
2021/12/13 12:12:28;;;;;;;17.90;14.10;;;;;;;;;;5023883;28;20532;-74
2021/12/13 12:15:00;;;;;;;20.70;14.53;;;;;;;;;;5029390;28;20895;-74
2021/12/13 12:17:26;;;;;;;19.27;13.83;;;;;;;;;;5028394;28;20457;-74
2021/12/13 12:19:54;;;;;;;16.23;12.70;;;;;;;;;;5026449;28;20468;-74
2021/12/13 12:22:20;;;;;;;16.33;14.00;;;;;;;;;;5029961;28;20526;-74
2021/12/13 12:24:48;;;;;;;17.77;13.10;;;;;;;;;;5033178;28;20465;-75
2021/12/13 12:27:18;;;;;;;18.40;13.57;;;;;;;;;;5034304;28;20476;-74
2021/12/13 12:29:48;;;;;;;14.10;11.70;;;;;;;;;;5035557;28;20505;-75
2021/12/13 12:32:17;;;;;;;16.10;12.90;;;;;;;;;;5029471;28;20468;-74
2021/12/13 12:34:53;;;;;;;17.17;12.57;;;;;;;;;;5035650;28;20469;-74
2021/12/13 12:37:25;;;;;;;15.17;11.33;;;;;;;;;;5034328;28;20561;-74
2021/12/13 12:40:13;;;;;;;15.30;11.70;;;;;;;;;;5034137;28;20981;-76
2021/12/13 12:42:46;;;;;;;15.47;12.30;;;;;;;;;;5035736;28;20883;-76
2021/12/13 12:45:14;;;;;;;14.97;12.33;;;;;;;;;;5037231;28;20523;-73
2021/12/13 12:47:54;;;;;;;18.43;12.30;;;;;;;;;;5033714;28;20442;-72
2021/12/13 12:50:26;;;;;;;13.03;11.50;;;;;;;;;;5029445;28;20448;-75
2021/12/13 12:52:54;;;;;;;15.77;12.30;;;;;;;;;;5031960;28;20424;-75
2021/12/13 12:55:22;;;;;;;16.93;11.40;;;;;;;;;;5032354;28;20477;-74
2021/12/13 12:57:47;;;;;;;15.70;12.07;;;;;;;;;;5029841;28;20834;-74
2021/12/13 13:00:14;;;;;;;16.50;13.00;;;;;;;;;;5024290;28;20435;-74
2021/12/13 13:02:40;;;;;;;22.30;12.43;;;;;;;;;;5032452;28;20267;-75
2021/12/13 13:05:08;;;;;;;15.77;11.97;;;;;;;;;;5039422;28;20565;-75
2021/12/13 13:07:35;;;;;;;16.10;11.30;;;;;;;;;;5038254;28;20179;-77
2021/12/13 13:10:27;;;;;;;15.47;12.03;;;;;;;;;;5030837;28;20466;-76
2021/12/13 13:13:01;;;;;;;15.40;12.17;;;;;;;;;;5033224;28;20434;-74
2021/12/13 13:15:53;;;;;;;16.13;12.70;;;;;;;;;;5028638;28;21008;-74
2021/12/13 13:18:25;;;;;;;14.67;11.40;;;;;;;;;;5011212;28;20499;-73
2021/12/13 13:20:54;;;;;;;15.53;11.97;;;;;;;;;;5025399;28;20430;-74
2021/12/13 13:23:24;;;;;;;13.50;11.90;;;;;;;;;;5026539;28;20476;-73
2021/12/13 13:26:00;;;;;;;16.77;12.73;;;;;;;;;;5034704;28;20442;-75
2021/12/13 13:28:37;;;;;;;13.93;11.40;;;;;;;;;;5036114;28;21264;-74
2021/12/13 13:31:03;;;;;;;14.10;12.20;;;;;;;;;;5027996;28;20792;-75
2021/12/13 13:33:48;;;;;;;17.60;12.77;;;;;;;;;;5027896;28;20461;-77
2021/12/13 13:36:16;;;;;;;15.83;12.67;;;;;;;;;;5030632;28;20720;-75
2021/12/13 13:38:42;;;;;;;20.90;13.50;;;;;;;;;;5028776;28;20494;-79
2021/12/13 13:41:10;;;;;;;15.07;11.67;;;;;;;;;;5023022;28;20942;-75
2021/12/13 13:43:39;;;;;;;15.73;11.60;;;;;;;;;;5034960;28;21046;-75
2021/12/13 13:46:07;;;;;;;13.63;12.17;;;;;;;;;;5038188;28;20500;-74
2021/12/13 13:49:02;;;;;;;13.80;12.30;;;;;;;;;;5032856;28;20433;-74
2021/12/13 13:51:23;;;;;;;18.20;13.17;;;;;;;;;;5025058;28;20432;-75
2021/12/13 13:53:53;;;;;;;17.30;12.80;;;;;;;;;;5032692;28;20888;-74
2021/12/13 13:56:18;;;;;;;13.00;11.70;;;;;;;;;;5029888;28;20500;-74
2021/12/13 13:58:47;;;;;;;15.00;12.13;;;;;;;;;;5031911;28;20513;-74
2021/12/13 14:01:20;;;;;;;16.03;12.67;;;;;;;;;;5034674;28;20184;-73
2021/12/13 14:04:07;;;;;;;21.47;13.97;;;;;;;;;;5028211;28;20481;-75
2021/12/13 14:06:40;;;;;;;19.40;13.70;;;;;;;;;;5026663;28;20448;-76
2021/12/13 14:09:38;;;;;;;17.10;12.77;;;;;;;;;;5033829;28;20419;-76
2021/12/13 14:12:06;;;;;;;15.80;12.13;;;;;;;;;;5017331;28;20434;-74
2021/12/13 14:14:46;;;;;;;17.93;13.83;;;;;;;;;;5030748;28;20480;-75
2021/12/13 14:17:13;;;;;;;16.20;14.23;;;;;;;;;;5030020;28;20430;-74
2021/12/13 14:19:51;;;;;;;15.93;13.10;;;;;;;;;;5029744;28;20445;-75
2021/12/13 14:22:28;;;;;;;18.20;13.27;;;;;;;;;;5039548;28;20437;-74
2021/12/13 14:24:56;;;;;;;16.20;13.77;;;;;;;;;;5034551;28;20537;-75
2021/12/13 14:27:28;;;;;;;22.93;15.80;;;;;;;;;;5031289;28;20434;-74
2021/12/13 14:30:12;;;;;;;20.83;14.70;;;;;;;;;;5028965;28;20430;-74
2021/12/13 14:32:48;;;;;;;21.10;14.30;;;;;;;;;;5027528;28;20440;-74
2021/12/13 14:35:19;;;;;;;18.13;13.87;;;;;;;;;;5032180;28;20469;-75
2021/12/13 14:37:48;;;;;;;19.70;13.57;;;;;;;;;;5032855;28;20480;-75
2021/12/13 14:40:14;;;;;;;21.43;14.67;;;;;;;;;;5035917;28;20430;-74
2021/12/13 14:42:40;;;;;;;17.93;13.47;;;;;;;;;;5029736;28;20441;-73
2021/12/13 14:45:12;;;;;;;15.33;13.77;;;;;;;;;;5033205;28;20207;-75
2021/12/13 14:47:39;;;;;;;19.70;14.40;;;;;;;;;;5026738;28;20187;-73
2021/12/13 14:50:16;;;;;;;15.80;12.87;;;;;;;;;;5033987;28;20473;-75
2021/12/13 14:52:49;;;;;;;16.90;13.03;;;;;;;;;;5038714;28;20961;-74
2021/12/13 14:55:17;;;;;;;19.93;13.10;;;;;;;;;;5030504;28;20461;-75
2021/12/13 14:57:50;;;;;;;14.63;12.50;;;;;;;;;;5028698;28;20432;-74